Terminal Aerodrome Forecast
Issued by NWS

Home | Current Version | Previous Version | Text Only | Print | Product List | Glossary On
Versions: 1 2 3 4 5 6 7 8 9 10 11 12 13 14 15 16 17 18
000
FTUS41 KPBZ 242300
TAFLBE
TAF
KLBE 242336Z 2500/2524 25009KT 6SM BR OVC015
     FM250300 25010KT 3SM -SHSN OVC008
     FM251700 VRB03KT 2SM -SN OVC007
     FM252200 VRB03KT 3/4SM -SN OVC004=

USA.gov is the U.S. government's official web portal to all federal, state and local government web resources and services.